Time;durP1;ratioP1;P1;durP2;ratioP2;P2;SDS_P1;SDS_P2;PMS_P1;PMS_P2;Temp;Humidity;BMP_temperature;BMP_pressure;BME280_temperature;BME280_humidity;BME280_pressure;Samples;Min_cycle;Max_cycle;Signal;HPM_P1;HPM_P2
2024/03/31 00:00:14;;;;;;;4.20;2.30;;;;;;;11.37;100.00;101208.02;106386;1257;64372;-81
2024/03/31 00:02:43;;;;;;;3.20;2.50;;;;;;;11.35;100.00;101210.77;106790;1251;72551;-79
2024/03/31 00:05:10;;;;;;;6.60;2.70;;;;;;;11.34;100.00;101205.77;106699;1251;61344;-77
2024/03/31 00:07:37;;;;;;;4.70;2.50;;;;;;;11.33;100.00;101202.81;106643;1253;61144;-77
2024/03/31 00:10:14;;;;;;;8.90;2.60;;;;;;;11.33;100.00;101200.55;106301;1253;74979;-79
2024/03/31 00:12:44;;;;;;;3.90;2.40;;;;;;;11.33;100.00;101203.52;106437;1253;62806;-78
2024/03/31 00:15:11;;;;;;;3.40;2.10;;;;;;;11.34;100.00;101202.80;106492;1252;72416;-78
2024/03/31 00:17:38;;;;;;;4.60;1.90;;;;;;;11.34;100.00;101198.23;106203;1257;61229;-77
2024/03/31 00:20:05;;;;;;;3.70;2.00;;;;;;;11.35;100.00;101197.64;106104;1257;61257;-77
2024/03/31 00:22:32;;;;;;;4.00;2.50;;;;;;;11.36;100.00;101194.45;106066;1252;74659;-79
2024/03/31 00:24:59;;;;;;;4.10;2.20;;;;;;;11.36;100.00;101196.52;105951;1257;63921;-78
2024/03/31 00:27:26;;;;;;;6.90;2.20;;;;;;;11.38;100.00;101201.88;105970;1253;72703;-76
2024/03/31 00:29:52;;;;;;;7.80;2.20;;;;;;;11.38;100.00;101196.60;105955;1256;61454;-77
2024/03/31 00:32:19;;;;;;;4.90;2.10;;;;;;;11.39;100.00;101199.69;105753;1253;61266;-79
2024/03/31 00:34:47;;;;;;;7.00;2.40;;;;;;;11.40;100.00;101202.27;105958;1256;74702;-75
2024/03/31 00:37:15;;;;;;;5.60;2.80;;;;;;;11.41;100.00;101205.02;106064;1253;63836;-78
2024/03/31 00:39:42;;;;;;;4.00;2.00;;;;;;;11.43;100.00;101202.62;105999;1253;72744;-78
2024/03/31 00:42:09;;;;;;;4.30;2.40;;;;;;;11.45;100.00;101204.81;106337;1253;61227;-77
2024/03/31 00:44:36;;;;;;;5.60;2.10;;;;;;;11.46;100.00;101201.60;106448;1253;61302;-75
2024/03/31 00:47:03;;;;;;;5.10;2.60;;;;;;;11.48;100.00;101208.36;106825;1253;74645;-78
2024/03/31 00:49:30;;;;;;;3.20;1.90;;;;;;;11.49;100.00;101207.07;106277;1256;62531;-77
2024/03/31 00:51:57;;;;;;;3.60;1.90;;;;;;;11.49;100.00;101207.91;106029;1253;72639;-77
2024/03/31 00:54:24;;;;;;;6.80;3.10;;;;;;;11.49;100.00;101212.13;105996;1257;61187;-78
2024/03/31 00:56:51;;;;;;;3.40;2.10;;;;;;;11.48;100.00;101210.92;105848;1257;61218;-77
2024/03/31 00:59:18;;;;;;;4.60;1.90;;;;;;;11.49;100.00;101204.08;105903;1252;74874;-77
2024/03/31 01:01:44;;;;;;;4.60;2.00;;;;;;;11.49;100.00;101209.67;106221;1253;63631;-82
2024/03/31 01:04:11;;;;;;;4.50;1.70;;;;;;;11.49;100.00;101210.37;106225;1253;72473;-80
2024/03/31 01:06:38;;;;;;;3.70;2.10;;;;;;;11.48;100.00;101213.23;105945;1257;61134;-79
2024/03/31 01:09:04;;;;;;;5.00;1.80;;;;;;;11.47;100.00;101215.76;106536;1253;60239;-78
2024/03/31 01:11:31;;;;;;;6.50;1.70;;;;;;;11.45;100.00;101218.47;106367;1253;74668;-79
2024/03/31 01:13:58;;;;;;;2.50;1.80;;;;;;;11.44;100.00;101222.75;106545;1253;63754;-78
2024/03/31 01:16:26;;;;;;;3.80;1.80;;;;;;;11.41;100.00;101223.60;107643;1253;71199;-78
2024/03/31 01:18:53;;;;;;;3.40;2.50;;;;;;;11.39;100.00;101227.34;108314;1252;59973;-77
2024/03/31 01:21:21;;;;;;;5.70;2.80;;;;;;;11.38;100.00;101225.84;107999;1252;60073;-78
2024/03/31 01:23:56;;;;;;;4.10;3.00;;;;;;;11.35;100.00;101221.10;107912;1253;61169;-79
2024/03/31 01:26:23;;;;;;;4.20;2.40;;;;;;;11.32;100.00;101225.45;108088;1257;62617;-78
2024/03/31 01:28:50;;;;;;;2.50;1.70;;;;;;;11.29;100.00;101222.64;107576;1253;71123;-79
2024/03/31 01:31:17;;;;;;;10.00;2.30;;;;;;;11.26;100.00;101221.96;107390;1257;61542;-78
2024/03/31 01:33:46;;;;;;;3.60;1.90;;;;;;;11.21;100.00;101223.60;107690;1252;61834;-79
2024/03/31 01:36:13;;;;;;;4.20;1.60;;;;;;;11.17;100.00;101227.48;107267;1256;74753;-78
2024/03/31 01:38:40;;;;;;;3.10;2.10;;;;;;;11.14;100.00;101233.06;107392;1253;62639;-78
2024/03/31 01:41:25;;;;;;;4.20;2.30;;;;;;;11.11;100.00;101231.83;106886;1253;71587;-76
2024/03/31 01:43:52;;;;;;;3.50;1.70;;;;;;;11.08;100.00;101230.23;106805;1252;61135;-78
2024/03/31 01:46:19;;;;;;;4.90;2.00;;;;;;;11.07;100.00;101230.30;106546;1253;61251;-80
2024/03/31 01:48:45;;;;;;;3.80;2.10;;;;;;;11.05;100.00;101228.61;106331;1257;74675;-80
2024/03/31 01:51:12;;;;;;;6.10;1.70;;;;;;;11.03;100.00;101228.90;106409;1257;63765;-79
2024/03/31 01:53:39;;;;;;;3.80;2.30;;;;;;;11.01;100.00;101234.79;106215;1253;72764;-80
2024/03/31 01:56:06;;;;;;;6.20;3.30;;;;;;;10.99;100.00;101233.49;106560;1252;61206;-78
2024/03/31 01:58:33;;;;;;;5.20;2.30;;;;;;;10.97;100.00;101238.29;106359;1253;61344;-80
2024/03/31 02:01:00;;;;;;;4.30;2.10;;;;;;;10.95;100.00;101234.19;106373;1253;73734;-77
2024/03/31 02:03:30;;;;;;;5.70;2.10;;;;;;;10.94;100.00;101236.55;108157;1253;63016;-78
2024/03/31 02:05:56;;;;;;;8.40;2.20;;;;;;;10.93;100.00;101234.70;109023;1253;71509;-80
2024/03/31 02:08:24;;;;;;;3.90;1.60;;;;;;;10.91;100.00;101234.45;108965;1254;61242;-79
2024/03/31 02:10:51;;;;;;;4.00;1.90;;;;;;;10.89;100.00;101235.27;106040;1253;61267;-80
2024/03/31 02:13:18;;;;;;;3.00;2.20;;;;;;;10.88;100.00;101231.81;106030;1252;73662;-78
2024/03/31 02:15:44;;;;;;;5.50;2.40;;;;;;;10.86;100.00;101229.11;105866;1253;61339;-78
2024/03/31 02:18:11;;;;;;;3.00;1.70;;;;;;;10.84;100.00;101231.98;105895;1253;61251;-79
2024/03/31 02:20:38;;;;;;;2.50;1.70;;;;;;;10.83;100.00;101236.77;105948;1253;61362;-78
2024/03/31 02:23:05;;;;;;;2.80;1.80;;;;;;;10.82;100.00;101238.91;105840;1254;61221;-78
2024/03/31 02:25:31;;;;;;;3.50;2.10;;;;;;;10.80;100.00;101233.25;105852;1258;74688;-78
2024/03/31 02:27:58;;;;;;;2.60;1.80;;;;;;;10.76;100.00;101239.20;105837;1258;61249;-79
2024/03/31 02:30:24;;;;;;;5.00;2.20;;;;;;;10.75;100.00;101238.21;105886;1253;70859;-78
2024/03/31 02:32:52;;;;;;;3.40;1.70;;;;;;;10.73;100.00;101240.40;105889;1257;61347;-77
2024/03/31 02:35:19;;;;;;;3.10;1.80;;;;;;;10.71;100.00;101244.36;106062;1253;61310;-80
2024/03/31 02:37:47;;;;;;;5.80;2.00;;;;;;;10.70;100.00;101247.56;106114;1253;61250;-79
2024/03/31 02:40:15;;;;;;;5.70;2.00;;;;;;;10.69;100.00;101245.34;105979;1257;63894;-79
2024/03/31 02:42:41;;;;;;;6.40;2.30;;;;;;;10.67;100.00;101247.23;105837;1253;72650;-79
2024/03/31 02:45:08;;;;;;;7.80;2.20;;;;;;;10.65;100.00;101243.80;105851;1258;62111;-79
2024/03/31 02:47:35;;;;;;;7.60;3.20;;;;;;;10.65;100.00;101242.42;106061;1253;61252;-80
2024/03/31 02:50:04;;;;;;;5.90;2.10;;;;;;;10.63;100.00;101241.11;105931;1253;73202;-80
2024/03/31 02:52:31;;;;;;;3.80;2.00;;;;;;;10.61;100.00;101241.20;105720;1257;62714;-79
2024/03/31 02:54:59;;;;;;;5.30;2.10;;;;;;;10.58;100.00;101238.39;105788;1254;71586;-80
2024/03/31 02:57:26;;;;;;;4.10;2.00;;;;;;;10.56;100.00;101243.21;105854;1257;61841;-78
2024/03/31 02:59:53;;;;;;;5.00;2.00;;;;;;;10.54;100.00;101244.70;106011;1253;61205;-80
2024/03/31 03:02:19;;;;;;;3.00;1.80;;;;;;;10.53;100.00;101246.30;105804;1257;74436;-78
2024/03/31 03:04:47;;;;;;;4.60;2.10;;;;;;;10.52;100.00;101242.87;106086;1253;63774;-80
2024/03/31 03:07:14;;;;;;;6.40;2.10;;;;;;;10.50;100.00;101247.33;105883;1253;72772;-79
2024/03/31 03:09:41;;;;;;;7.10;2.50;;;;;;;10.49;100.00;101247.38;105750;1255;61277;-79
2024/03/31 03:12:07;;;;;;;2.60;1.90;;;;;;;10.49;100.00;101252.98;107431;1253;61127;-80
2024/03/31 03:14:34;;;;;;;2.60;1.70;;;;;;;10.49;100.00;101250.89;107354;1253;74746;-78
2024/03/31 03:17:02;;;;;;;6.70;1.90;;;;;;;10.48;100.00;101251.64;107995;1255;62779;-78
2024/03/31 03:19:29;;;;;;;4.50;2.10;;;;;;;10.48;100.00;101261.09;106774;1253;73188;-80
2024/03/31 03:21:56;;;;;;;3.20;1.50;;;;;;;10.48;100.00;101264.56;106937;1257;61335;-78
2024/03/31 03:24:23;;;;;;;3.90;2.10;;;;;;;10.48;100.00;101263.71;107736;1253;61248;-80
2024/03/31 03:26:50;;;;;;;2.80;1.80;;;;;;;10.48;100.00;101270.02;107823;1256;74676;-78
2024/03/31 03:29:17;;;;;;;4.40;1.70;;;;;;;10.48;100.00;101270.35;106892;1253;62520;-80
2024/03/31 03:31:45;;;;;;;3.20;1.80;;;;;;;10.49;100.00;101270.27;106384;1253;61353;-79
2024/03/31 03:34:12;;;;;;;3.80;2.10;;;;;;;10.51;100.00;101273.67;106612;1256;61279;-80
2024/03/31 03:36:39;;;;;;;6.70;2.30;;;;;;;10.50;100.00;101275.50;106053;1260;61504;-80
2024/03/31 03:39:06;;;;;;;4.20;2.10;;;;;;;10.50;100.00;101280.20;106147;1254;73526;-79
2024/03/31 03:41:33;;;;;;;6.10;2.60;;;;;;;10.50;100.00;101281.95;106023;1257;63867;-79
2024/03/31 03:43:59;;;;;;;7.20;2.40;;;;;;;10.52;100.00;101281.15;105956;1253;72652;-79
2024/03/31 03:46:27;;;;;;;4.70;2.30;;;;;;;10.54;100.00;101282.63;105913;1257;61192;-80
2024/03/31 03:48:53;;;;;;;3.50;2.20;;;;;;;10.56;100.00;101278.84;105935;1257;61293;-78
2024/03/31 03:51:20;;;;;;;4.10;2.00;;;;;;;10.59;100.00;101285.71;106025;1252;73319;-79
2024/03/31 03:53:47;;;;;;;4.20;2.30;;;;;;;10.60;100.00;101283.42;106444;1256;63943;-79
2024/03/31 03:56:15;;;;;;;4.00;2.40;;;;;;;10.60;100.00;101284.80;106435;1253;72673;-80
2024/03/31 03:58:41;;;;;;;5.40;2.30;;;;;;;10.62;100.00;101286.30;106342;1253;61308;-79
2024/03/31 04:01:08;;;;;;;2.90;1.90;;;;;;;10.64;100.00;101285.30;106670;1252;61194;-79
2024/03/31 04:03:35;;;;;;;9.90;2.60;;;;;;;10.66;100.00;101287.12;106980;1253;73585;-79
2024/03/31 04:06:03;;;;;;;4.40;1.90;;;;;;;10.69;100.00;101292.56;107526;1253;62529;-78
2024/03/31 04:08:30;;;;;;;6.60;2.30;;;;;;;10.73;100.00;101289.73;107055;1253;71306;-79
2024/03/31 04:10:57;;;;;;;7.30;3.20;;;;;;;10.76;100.00;101290.27;106559;1253;61352;-80
2024/03/31 04:13:24;;;;;;;6.60;2.10;;;;;;;10.81;100.00;101287.79;106505;1253;61145;-79
2024/03/31 04:16:00;;;;;;;6.20;2.30;;;;;;;10.86;100.00;101286.98;106498;1258;73796;-79
2024/03/31 04:18:37;;;;;;;5.90;2.20;;;;;;;10.93;100.00;101278.39;106303;1253;63811;-77
2024/03/31 04:21:07;;;;;;;3.40;2.00;;;;;;;11.00;100.00;101279.47;106389;1253;72763;-77
2024/03/31 04:23:36;;;;;;;6.40;2.10;;;;;;;11.06;100.00;101275.28;106155;1253;62190;-79
2024/03/31 04:26:03;;;;;;;9.10;2.20;;;;;;;11.14;100.00;101278.93;106113;1257;61306;-78
2024/03/31 04:28:30;;;;;;;4.60;2.00;;;;;;;11.22;100.00;101274.65;108894;1252;75907;-78
2024/03/31 04:31:03;;;;;;;3.40;1.90;;;;;;;11.31;100.00;101277.14;109050;1252;62519;-78
2024/03/31 04:33:35;;;;;;;9.50;2.50;;;;;;;11.43;100.00;101278.82;109125;1252;71496;-79
2024/03/31 04:36:04;;;;;;;7.40;2.60;;;;;;;11.54;100.00;101276.65;107025;1253;61298;-79
2024/03/31 04:38:30;;;;;;;5.10;2.40;;;;;;;11.67;100.00;101279.30;106240;1253;61354;-81
2024/03/31 04:43:03;;;;;;;7.10;2.60;;;;;;;11.93;100.00;101288.23;103002;1288;603650;-79
2024/03/31 04:45:33;;;;;;;5.50;2.00;;;;;;;12.11;100.00;101290.58;105433;1269;60368;-79
2024/03/31 04:48:01;;;;;;;4.20;2.00;;;;;;;12.26;100.00;101290.05;106070;1254;60135;-78
2024/03/31 04:50:29;;;;;;;5.00;2.40;;;;;;;12.41;100.00;101289.42;106391;1253;73118;-80
2024/03/31 04:52:57;;;;;;;8.80;2.60;;;;;;;12.53;100.00;101291.01;106305;1253;63771;-80
2024/03/31 04:55:25;;;;;;;11.40;2.10;;;;;;;12.67;100.00;101291.09;106230;1253;219512;-79
2024/03/31 04:57:53;;;;;;;6.70;2.20;;;;;;;12.84;100.00;101296.73;106223;1256;60372;-79
2024/03/31 05:00:20;;;;;;;7.80;3.00;;;;;;;13.00;100.00;101295.98;106046;1253;60098;-81
2024/03/31 05:02:48;;;;;;;4.80;1.90;;;;;;;13.16;100.00;101301.35;107799;1251;73496;-79
2024/03/31 05:05:14;;;;;;;4.10;1.90;;;;;;;13.30;100.00;101305.13;109218;1252;62732;-79
2024/03/31 05:07:41;;;;;;;7.20;2.40;;;;;;;13.40;100.00;101308.55;106309;1253;71234;-79
2024/03/31 05:10:08;;;;;;;3.80;1.60;;;;;;;13.48;100.00;101307.35;105931;1257;60523;-80
2024/03/31 05:12:35;;;;;;;3.40;1.30;;;;;;;13.57;100.00;101311.19;106123;1252;60422;-81
2024/03/31 05:15:02;;;;;;;4.00;1.50;;;;;;;13.69;100.00;101311.71;106029;1251;73845;-80
2024/03/31 05:17:29;;;;;;;6.60;2.30;;;;;;;13.86;100.00;101314.48;106430;1255;62910;-81
2024/03/31 05:19:56;;;;;;;4.70;1.90;;;;;;;14.06;100.00;101317.84;106624;1255;72535;-81
2024/03/31 05:22:24;;;;;;;6.30;2.10;;;;;;;14.25;100.00;101319.79;106469;1251;60502;-79
2024/03/31 05:24:51;;;;;;;3.60;2.50;;;;;;;14.47;100.00;101319.73;106412;1253;60543;-79
2024/03/31 05:27:18;;;;;;;12.20;2.30;;;;;;;14.74;100.00;101321.89;106148;1251;72538;-79
2024/03/31 05:29:45;;;;;;;7.80;2.10;;;;;;;15.01;100.00;101321.14;106199;1256;63809;-81
2024/03/31 05:32:12;;;;;;;12.70;2.60;;;;;;;15.26;100.00;101325.45;106304;1251;71447;-78
2024/03/31 05:34:52;;;;;;;6.10;2.10;;;;;;;15.52;94.40;101329.98;106390;1255;60568;-79
2024/03/31 05:37:18;;;;;;;6.10;1.60;;;;;;;15.72;88.91;101327.38;106591;1251;60483;-80
2024/03/31 05:39:45;;;;;;;4.60;1.90;;;;;;;15.91;87.22;101327.06;106331;1251;73677;-80
2024/03/31 05:42:13;;;;;;;6.90;2.00;;;;;;;16.15;83.26;101323.65;106429;1255;63868;-79
2024/03/31 05:44:39;;;;;;;2.50;1.60;;;;;;;16.39;78.96;101328.81;106125;1252;72485;-79
2024/03/31 05:47:06;;;;;;;5.40;2.00;;;;;;;16.63;74.90;101328.60;106360;1256;60557;-80
2024/03/31 05:49:33;;;;;;;7.10;1.80;;;;;;;16.90;73.30;101325.73;106315;1251;60600;-77
2024/03/31 05:52:00;;;;;;;8.40;2.00;;;;;;;17.20;70.33;101327.50;106418;1251;72578;-79
2024/03/31 05:54:27;;;;;;;4.90;2.10;;;;;;;17.48;65.23;101330.48;106091;1251;64003;-77
2024/03/31 05:56:56;;;;;;;4.70;1.70;;;;;;;17.75;62.57;101329.48;105965;1255;72560;-79
2024/03/31 05:59:23;;;;;;;5.20;1.50;;;;;;;18.04;60.79;101330.01;105806;1253;60457;-79
2024/03/31 06:01:50;;;;;;;2.60;1.50;;;;;;;18.33;59.51;101327.98;105865;1253;60624;-79
2024/03/31 06:04:17;;;;;;;5.00;1.40;;;;;;;18.63;58.48;101328.73;105859;1256;72865;-79
2024/03/31 06:06:44;;;;;;;6.20;1.80;;;;;;;18.89;54.76;101329.98;105996;1252;63901;-80
2024/03/31 06:09:11;;;;;;;10.00;1.50;;;;;;;19.04;54.03;101332.29;105771;1253;71479;-79
2024/03/31 06:11:39;;;;;;;4.40;1.50;;;;;;;19.18;53.27;101330.90;105910;1255;60401;-77
2024/03/31 06:14:06;;;;;;;2.90;1.60;;;;;;;19.32;51.87;101326.48;105891;1251;60453;-76
2024/03/31 06:16:32;;;;;;;3.60;1.60;;;;;;;19.51;51.16;101328.05;105847;1251;73822;-77
2024/03/31 06:18:59;;;;;;;6.50;1.40;;;;;;;19.72;50.01;101327.48;105851;1256;63882;-76
2024/03/31 06:21:26;;;;;;;6.60;3.00;;;;;;;19.93;50.04;101323.88;105824;1253;73138;-76
2024/03/31 06:23:53;;;;;;;4.60;1.70;;;;;;;20.12;48.65;101323.67;105799;1253;60615;-77
2024/03/31 06:26:19;;;;;;;6.10;1.70;;;;;;;20.30;47.84;101324.71;105828;1251;60455;-76
2024/03/31 06:28:46;;;;;;;4.60;1.80;;;;;;;20.47;46.53;101325.29;105899;1255;73914;-78
2024/03/31 06:31:13;;;;;;;4.70;1.90;;;;;;;20.60;46.16;101324.14;105861;1255;63741;-78
2024/03/31 06:33:43;;;;;;;6.10;2.40;;;;;;;20.75;45.66;101325.83;106179;1251;71311;-78
2024/03/31 06:36:10;;;;;;;6.50;2.10;;;;;;;20.90;45.27;101327.10;106080;1253;60460;-78
2024/03/31 06:38:37;;;;;;;5.00;1.40;;;;;;;21.08;44.71;101326.96;106275;1253;60432;-79
2024/03/31 06:41:03;;;;;;;3.30;1.40;;;;;;;21.29;44.32;101326.24;105742;1251;73707;-80
2024/03/31 06:43:31;;;;;;;3.50;1.20;;;;;;;21.47;43.86;101325.33;105849;1256;63976;-78
2024/03/31 06:45:58;;;;;;;3.60;1.30;;;;;;;21.64;43.16;101330.66;105916;1255;72686;-79
2024/03/31 06:48:25;;;;;;;5.00;1.50;;;;;;;21.81;42.62;101333.70;106032;1256;60537;-78
2024/03/31 06:50:52;;;;;;;5.50;2.50;;;;;;;22.01;42.21;101334.21;105820;1251;60519;-77
2024/03/31 06:53:19;;;;;;;7.70;2.00;;;;;;;22.26;42.03;101337.17;105944;1251;74237;-78
2024/03/31 06:55:45;;;;;;;3.10;1.60;;;;;;;22.48;41.37;101340.02;105875;1255;62946;-75
2024/03/31 06:58:12;;;;;;;3.20;1.50;;;;;;;22.66;40.66;101339.43;105757;1253;71362;-75
2024/03/31 07:00:39;;;;;;;4.00;1.50;;;;;;;22.80;39.91;101343.02;105828;1256;60527;-76
2024/03/31 07:03:06;;;;;;;2.50;1.30;;;;;;;22.90;39.53;101340.92;105786;1256;60344;-79
2024/03/31 07:05:33;;;;;;;3.40;1.00;;;;;;;23.05;39.63;101342.64;106078;1251;73856;-77
2024/03/31 07:08:00;;;;;;;5.30;1.60;;;;;;;23.30;39.42;101343.70;105826;1257;63757;-76
2024/03/31 07:10:28;;;;;;;3.80;1.10;;;;;;;23.58;38.64;101341.52;105884;1251;72642;-78
2024/03/31 07:12:56;;;;;;;2.80;1.20;;;;;;;23.79;37.86;101346.14;106195;1255;61095;-78
2024/03/31 07:15:23;;;;;;;1.70;0.90;;;;;;;23.98;37.56;101347.96;105743;1258;60359;-77
2024/03/31 07:17:50;;;;;;;6.10;1.30;;;;;;;24.24;37.28;101346.41;105794;1253;73658;-76
2024/03/31 07:20:17;;;;;;;3.30;1.70;;;;;;;24.53;36.97;101343.52;105804;1257;62611;-78
2024/03/31 07:22:44;;;;;;;4.10;1.60;;;;;;;24.82;36.71;101347.30;105729;1257;71205;-78
2024/03/31 07:25:11;;;;;;;4.40;1.70;;;;;;;25.15;36.84;101346.39;105984;1256;60480;-77
2024/03/31 07:27:38;;;;;;;5.70;1.40;;;;;;;25.54;36.19;101346.02;105822;1256;60476;-79
2024/03/31 07:30:06;;;;;;;3.20;1.00;;;;;;;25.93;34.27;101345.79;105716;1253;73833;-79
2024/03/31 07:32:34;;;;;;;3.90;1.90;;;;;;;26.24;33.14;101343.98;106168;1253;62543;-79
2024/03/31 07:35:00;;;;;;;4.70;1.30;;;;;;;26.55;31.58;101341.27;105874;1253;72791;-77
2024/03/31 07:37:29;;;;;;;2.80;1.90;;;;;;;26.90;30.70;101336.48;105773;1256;60544;-79
2024/03/31 07:39:56;;;;;;;1.70;0.70;;;;;;;27.29;30.15;101337.08;105960;1253;60422;-78
2024/03/31 07:42:23;;;;;;;5.40;1.30;;;;;;;27.61;29.38;101335.73;105943;1255;73599;-77
2024/03/31 07:44:50;;;;;;;3.10;0.80;;;;;;;27.90;29.03;101335.90;105980;1256;63879;-79
2024/03/31 07:47:16;;;;;;;1.40;0.90;;;;;;;28.14;28.07;101333.80;105979;1255;71272;-79
2024/03/31 07:49:43;;;;;;;2.80;1.10;;;;;;;28.28;27.75;101337.01;105799;1261;60524;-79
2024/03/31 07:52:10;;;;;;;4.80;1.20;;;;;;;28.49;27.03;101328.38;106334;1253;60479;-79
2024/03/31 07:54:36;;;;;;;2.70;1.00;;;;;;;28.73;26.12;101330.82;106586;1253;73831;-81
2024/03/31 07:57:03;;;;;;;3.20;0.70;;;;;;;28.95;25.71;101331.88;106237;1255;62958;-78
2024/03/31 07:59:30;;;;;;;5.80;0.90;;;;;;;29.23;25.26;101330.31;106154;1255;72488;-79
2024/03/31 08:01:58;;;;;;;5.20;1.00;;;;;;;29.48;24.33;101335.66;106032;1251;60517;-80
2024/03/31 08:04:25;;;;;;;2.80;1.40;;;;;;;29.61;24.44;101330.23;106058;1255;61455;-78
2024/03/31 08:06:52;;;;;;;2.70;1.10;;;;;;;29.82;24.43;101330.48;106052;1253;74924;-79
2024/03/31 08:09:18;;;;;;;5.60;1.20;;;;;;;30.11;23.81;101333.23;105957;1255;63896;-79
2024/03/31 08:11:45;;;;;;;1.50;0.60;;;;;;;30.34;23.16;101327.65;106151;1251;71447;-78
2024/03/31 08:14:11;;;;;;;1.30;0.40;;;;;;;30.59;23.06;101320.58;106116;1253;60540;-77
2024/03/31 08:16:39;;;;;;;3.10;0.90;;;;;;;30.83;22.56;101318.58;105994;1251;60457;-78
2024/03/31 08:19:05;;;;;;;2.40;1.20;;;;;;;31.02;22.52;101320.63;105766;1254;60632;-77
2024/03/31 08:21:32;;;;;;;3.60;1.10;;;;;;;31.19;22.10;101321.59;105791;1255;63987;-78
2024/03/31 08:23:59;;;;;;;5.50;1.40;;;;;;;31.28;21.38;101321.61;105942;1252;72770;-78
2024/03/31 08:26:26;;;;;;;2.40;0.60;;;;;;;31.33;21.67;101320.73;105879;1255;60534;-80
2024/03/31 08:28:52;;;;;;;2.30;1.00;;;;;;;31.42;21.58;101316.89;105817;1253;60515;-80
2024/03/31 08:31:19;;;;;;;2.20;0.60;;;;;;;31.46;21.00;101323.02;105809;1251;73721;-80
2024/03/31 08:33:46;;;;;;;2.00;0.80;;;;;;;31.43;21.05;101317.64;105766;1253;62560;-77
2024/03/31 08:36:15;;;;;;;2.10;0.40;;;;;;;31.40;21.21;101317.45;105855;1253;71971;-79
2024/03/31 08:38:42;;;;;;;2.60;0.90;;;;;;;31.40;20.78;101319.59;105995;1255;60712;-79
2024/03/31 08:41:09;;;;;;;1.90;0.40;;;;;;;31.49;21.14;101322.09;105900;1253;60521;-79
2024/03/31 08:43:38;;;;;;;5.00;0.80;;;;;;;31.64;20.86;101320.88;105982;1253;73723;-79
2024/03/31 08:46:08;;;;;;;2.50;0.50;;;;;;;31.75;20.62;101319.27;105984;1253;63154;-79
2024/03/31 08:48:38;;;;;;;3.70;0.80;;;;;;;31.88;20.32;101321.59;105703;1254;73872;-77
2024/03/31 08:51:05;;;;;;;1.40;0.50;;;;;;;31.91;19.86;101320.91;105751;1256;61230;-78
2024/03/31 08:53:32;;;;;;;2.40;0.90;;;;;;;31.88;19.65;101321.76;105784;1253;61301;-79
2024/03/31 08:55:59;;;;;;;2.60;0.40;;;;;;;31.90;19.62;101319.95;105899;1255;74550;-82
2024/03/31 08:58:26;;;;;;;1.00;0.40;;;;;;;31.89;19.39;101319.38;105852;1253;62368;-82
2024/03/31 09:00:53;;;;;;;2.30;0.70;;;;;;;31.79;19.10;101320.63;105671;1257;73732;-82
2024/03/31 09:03:25;;;;;;;3.40;0.70;;;;;;;31.73;19.62;101318.83;105693;1258;61437;-79
2024/03/31 09:05:53;;;;;;;2.80;0.50;;;;;;;31.91;19.85;101315.79;105955;1255;61111;-78
2024/03/31 09:08:20;;;;;;;3.50;0.40;;;;;;;32.18;19.63;101316.11;106011;1255;73788;-80
2024/03/31 09:11:09;;;;;;;3.10;0.40;;;;;;;32.34;19.24;101314.26;106341;1255;62822;-78
2024/03/31 09:13:35;;;;;;;3.60;0.80;;;;;;;32.35;18.61;101315.66;106026;1253;73019;-79
2024/03/31 09:16:03;;;;;;;3.10;0.90;;;;;;;32.42;18.49;101316.95;105983;1255;61199;-80
2024/03/31 09:18:30;;;;;;;1.70;0.60;;;;;;;32.54;18.33;101317.77;105878;1253;61315;-78
2024/03/31 09:20:57;;;;;;;2.10;0.90;;;;;;;32.73;18.77;101317.73;105779;1255;75626;-81
2024/03/31 09:23:23;;;;;;;3.90;0.50;;;;;;;32.90;17.37;101311.56;105989;1255;63925;-80
2024/03/31 09:25:50;;;;;;;1.90;1.00;;;;;;;32.93;17.66;101315.05;105812;1253;71990;-80
2024/03/31 09:28:17;;;;;;;8.00;0.80;;;;;;;33.03;18.11;101312.04;105788;1255;63128;-81
2024/03/31 09:30:49;;;;;;;1.40;0.40;;;;;;;33.26;18.15;101314.96;105747;1251;61248;-80
2024/03/31 09:33:19;;;;;;;;;;;;;;;33.41;17.11;101316.13;105724;1251;72863;-80
2024/03/31 09:35:46;;;;;;;2.00;0.60;;;;;;;33.46;16.58;101320.08;105780;1255;64515;-79
2024/03/31 09:38:13;;;;;;;1.30;0.60;;;;;;;33.40;16.92;101316.68;105962;1253;73081;-81
2024/03/31 09:40:40;;;;;;;0.50;0.20;;;;;;;33.39;16.63;101312.83;105881;1253;61529;-80
2024/03/31 09:43:07;;;;;;;3.10;0.60;;;;;;;33.28;16.50;101311.71;105800;1252;61248;-80
2024/03/31 09:45:34;;;;;;;1.60;0.40;;;;;;;33.23;16.36;101305.48;105887;1253;72616;-79
2024/03/31 09:48:06;;;;;;;3.00;0.90;;;;;;;33.31;15.94;101311.89;105824;1252;64007;-80
2024/03/31 09:50:50;;;;;;;1.10;0.50;;;;;;;33.29;15.60;101311.23;105852;1253;71870;-81
2024/03/31 09:53:23;;;;;;;6.70;0.60;;;;;;;33.21;15.76;101305.13;106165;1255;61158;-79
2024/03/31 09:55:50;;;;;;;1.00;0.30;;;;;;;33.25;16.20;101304.39;105904;1256;61211;-78
2024/03/31 09:58:17;;;;;;;3.40;0.40;;;;;;;33.31;15.67;101300.98;105508;1253;73657;-77
2024/03/31 10:00:45;;;;;;;1.10;0.70;;;;;;;33.36;15.37;101301.33;106251;1257;64853;-79
2024/03/31 10:03:24;;;;;;;3.10;0.50;;;;;;;33.35;14.61;101294.56;105820;1251;73972;-76
2024/03/31 10:05:51;;;;;;;0.90;0.30;;;;;;;33.16;14.45;101292.27;105853;1256;61333;-80
2024/03/31 10:08:18;;;;;;;4.50;1.00;;;;;;;33.02;14.95;101293.02;105794;1253;61368;-80
2024/03/31 10:10:45;;;;;;;2.10;0.40;;;;;;;33.03;15.27;101291.26;105815;1252;74670;-79
2024/03/31 10:13:12;;;;;;;1.40;0.30;;;;;;;33.15;15.46;101284.59;105726;1258;63338;-79
2024/03/31 10:15:39;;;;;;;1.70;0.90;;;;;;;33.29;15.26;101286.19;105776;1259;74132;-83
2024/03/31 10:18:06;;;;;;;1.10;0.10;;;;;;;33.24;14.63;101291.96;105815;1256;61251;-80
2024/03/31 10:20:36;;;;;;;0.60;0.40;;;;;;;33.13;15.26;101289.63;105822;1253;61334;-78
2024/03/31 10:23:03;;;;;;;6.60;0.70;;;;;;;33.18;14.89;101281.84;105901;1251;74899;-80
2024/03/31 10:25:31;;;;;;;1.00;0.20;;;;;;;33.20;15.51;101285.81;105869;1255;65019;-78
2024/03/31 10:27:58;;;;;;;0.50;0.10;;;;;;;33.33;15.53;101284.87;105839;1253;71678;-79
2024/03/31 10:30:27;;;;;;;1.90;0.30;;;;;;;33.44;14.98;101279.77;105910;1251;61258;-77
2024/03/31 10:32:54;;;;;;;1.30;0.40;;;;;;;33.42;15.20;101277.80;106030;1251;61283;-81
2024/03/31 10:35:22;;;;;;;0.60;0.30;;;;;;;33.38;15.59;101277.83;105928;1253;74984;-78
2024/03/31 10:37:49;;;;;;;1.10;0.70;;;;;;;33.39;15.77;101274.10;105881;1256;65178;-80
2024/03/31 10:40:16;;;;;;;1.90;0.70;;;;;;;33.55;15.33;101271.77;105871;1253;74117;-76
2024/03/31 10:42:44;;;;;;;2.70;0.20;;;;;;;33.59;14.92;101269.07;105827;1253;61308;-78
2024/03/31 10:45:12;;;;;;;3.30;0.50;;;;;;;33.48;14.76;101265.95;105850;1253;61212;-79
2024/03/31 10:47:39;;;;;;;1.00;0.90;;;;;;;33.42;14.97;101265.73;105772;1253;74461;-79
2024/03/31 10:50:09;;;;;;;2.80;0.50;;;;;;;33.53;15.14;101257.77;105872;1256;63874;-81
2024/03/31 10:52:36;;;;;;;1.70;0.40;;;;;;;33.62;15.10;101256.30;105985;1253;72781;-79
2024/03/31 10:55:10;;;;;;;2.20;1.20;;;;;;;33.67;15.12;101248.30;107298;1251;60998;-79
2024/03/31 10:57:38;;;;;;;3.90;0.80;;;;;;;33.75;14.52;101244.80;107953;1255;59822;-80
2024/03/31 11:00:07;;;;;;;2.60;0.50;;;;;;;33.73;14.10;101235.70;106532;1255;74676;-79
2024/03/31 11:02:35;;;;;;;2.90;0.90;;;;;;;33.60;14.27;101237.00;106032;1251;63172;-80
2024/03/31 11:05:05;;;;;;;1.00;0.50;;;;;;;33.64;15.02;101232.80;106071;1253;72219;-80
2024/03/31 11:07:36;;;;;;;2.00;0.50;;;;;;;33.61;14.74;101227.52;106004;1256;61820;-80
2024/03/31 11:10:05;;;;;;;1.20;0.40;;;;;;;33.65;14.94;101225.42;105965;1253;61597;-80
2024/03/31 11:12:32;;;;;;;0.70;0.20;;;;;;;33.70;15.05;101221.95;106072;1255;74276;-80
2024/03/31 11:14:59;;;;;;;1.10;0.40;;;;;;;33.73;15.15;101217.27;105976;1253;63930;-79
2024/03/31 11:17:26;;;;;;;3.30;0.70;;;;;;;33.73;15.09;101215.80;105885;1255;72467;-79